Cazalla De La Sierra, Spain
Current Conditions -  °F | °C
As of 6:00 AM on Saturday 29 Nov 2014 (Local Time) from LEZL Reporting Station
Clear Clear  
Wind Chill: 52°   Ceiling: Unl
Heat Index: 52°   Visibility: 6mi
Dew Point: 50°   Wind: 7mph
Humidity: 94%   Direction: 50°NE
Pressure: 29.23"   Gusts: NA
Location:  37.93°N, 5.76°W
Report Text: LEZL 290500Z 05006KT CAVOK 11/10 Q0990 NOSIG
Loading
Personal Weather Stations






























Interactive Weather Map New forecast layout! Learn more

10-Day Weather Forecast

Advertisements
Track Severe Weather on mobile